createdAt,value
2023-03-18T00:01:56.420Z,6.67
2023-03-18T00:04:23.467Z,8.90
2023-03-18T00:06:50.972Z,16.23
2023-03-18T00:09:18.255Z,6.27
2023-03-18T00:11:45.353Z,8.50
2023-03-18T00:14:12.411Z,12.37
2023-03-18T00:16:40.850Z,10.07
2023-03-18T00:19:08.283Z,10.33
2023-03-18T00:21:35.365Z,7.70
2023-03-18T00:24:02.424Z,8.43
2023-03-18T00:26:29.546Z,11.00
2023-03-18T00:28:57.456Z,13.20
2023-03-18T00:31:24.991Z,6.33
2023-03-18T00:33:53.479Z,10.40
2023-03-18T00:36:20.915Z,10.43
2023-03-18T00:38:48.111Z,8.13
2023-03-18T00:41:15.221Z,8.30
2023-03-18T00:43:43.631Z,10.77
2023-03-18T00:46:10.793Z,7.23
2023-03-18T00:48:37.866Z,6.63
2023-03-18T00:51:06.482Z,7.60
2023-03-18T00:53:33.632Z,8.77
2023-03-18T00:56:01.018Z,9.20
2023-03-18T00:58:28.190Z,6.73
2023-03-18T01:00:55.839Z,9.37
2023-03-18T01:03:22.971Z,8.27
2023-03-18T01:05:50.026Z,14.03
2023-03-18T01:08:18.464Z,25.47
2023-03-18T01:10:45.554Z,10.37
2023-03-18T01:13:12.673Z,9.50
2023-03-18T01:15:39.758Z,8.97
2023-03-18T01:18:06.892Z,11.67
2023-03-18T01:20:34.243Z,12.83
2023-03-18T01:23:01.445Z,7.17
2023-03-18T01:25:30.336Z,11.20
2023-03-18T01:27:57.444Z,10.27
2023-03-18T01:30:25.086Z,9.40
2023-03-18T01:32:56.593Z,11.20
2023-03-18T01:35:24.216Z,11.00
2023-03-18T01:37:51.301Z,10.63
2023-03-18T01:40:18.521Z,10.90
2023-03-18T01:42:53.356Z,9.07
2023-03-18T01:45:22.746Z,6.30
2023-03-18T01:47:52.843Z,12.03
2023-03-18T01:50:21.250Z,10.43
2023-03-18T01:52:50.098Z,6.80
2023-03-18T01:55:18.936Z,8.67
2023-03-18T01:57:46.785Z,8.90
2023-03-18T02:00:16.110Z,11.67
2023-03-18T02:02:46.107Z,9.53
2023-03-18T02:05:15.337Z,13.10
2023-03-18T02:07:44.327Z,8.00
2023-03-18T02:10:12.960Z,7.60
2023-03-18T02:12:42.709Z,11.40
2023-03-18T02:15:10.982Z,7.30
2023-03-18T02:17:41.705Z,16.10
2023-03-18T02:20:13.994Z,8.23
2023-03-18T02:22:42.479Z,6.63
2023-03-18T02:25:17.826Z,10.00
2023-03-18T02:27:47.877Z,17.00
2023-03-18T02:30:18.099Z,9.90
2023-03-18T02:32:48.888Z,9.23
2023-03-18T02:35:16.030Z,9.57
2023-03-18T02:37:43.456Z,11.43
2023-03-18T02:40:16.040Z,11.63
2023-03-18T02:42:43.887Z,14.47
2023-03-18T02:45:18.039Z,8.83
2023-03-18T02:48:03.313Z,8.73
2023-03-18T02:50:30.786Z,13.47
2023-03-18T02:52:57.976Z,13.83
2023-03-18T02:55:25.069Z,9.40
2023-03-18T02:57:52.153Z,11.13
2023-03-18T03:00:21.208Z,9.23
2023-03-18T03:02:49.327Z,14.20
2023-03-18T03:05:16.730Z,10.67
2023-03-18T03:07:43.987Z,15.23
2023-03-18T03:10:12.266Z,12.63
2023-03-18T03:12:40.809Z,11.30
2023-03-18T03:15:09.955Z,14.53
2023-03-18T03:17:43.570Z,11.07
2023-03-18T03:20:11.448Z,21.37
2023-03-18T03:22:38.548Z,13.60
2023-03-18T03:25:06.084Z,9.67
2023-03-18T03:27:34.233Z,11.20
2023-03-18T03:30:01.353Z,19.43
2023-03-18T03:32:28.525Z,12.80
2023-03-18T03:34:56.996Z,13.83
2023-03-18T03:37:24.142Z,14.67
2023-03-18T03:39:51.241Z,15.10
2023-03-18T03:42:19.048Z,16.27
2023-03-18T03:44:46.196Z,10.70
2023-03-18T03:47:13.348Z,22.90
2023-03-18T03:49:40.731Z,12.70
2023-03-18T03:52:09.234Z,18.30
2023-03-18T03:54:37.886Z,12.47
2023-03-18T03:57:05.008Z,11.00
2023-03-18T03:59:32.128Z,12.13
2023-03-18T04:02:18.041Z,16.83
2023-03-18T04:04:45.448Z,16.80
2023-03-18T04:07:23.711Z,12.93
2023-03-18T04:09:50.813Z,15.63
2023-03-18T04:12:17.876Z,14.43
2023-03-18T04:14:51.723Z,14.13
2023-03-18T04:17:19.132Z,19.03
2023-03-18T04:19:46.906Z,15.30
2023-03-18T04:22:13.995Z,13.07
2023-03-18T04:24:42.443Z,16.43
2023-03-18T04:27:09.684Z,11.70
2023-03-18T04:29:36.753Z,22.63
2023-03-18T04:32:04.085Z,16.53
2023-03-18T04:34:31.469Z,10.37
2023-03-18T04:36:58.591Z,14.90
2023-03-18T04:39:27.778Z,19.67
2023-03-18T04:41:56.308Z,16.10
2023-03-18T04:44:24.191Z,17.17
2023-03-18T04:46:52.613Z,14.53
2023-03-18T04:49:20.219Z,17.60
2023-03-18T04:51:47.502Z,13.57
2023-03-18T04:54:31.370Z,16.47
2023-03-18T04:57:03.774Z,17.77
2023-03-18T04:59:33.185Z,16.13
2023-03-18T05:02:04.009Z,15.90
2023-03-18T05:04:31.847Z,13.90
2023-03-18T05:06:59.795Z,20.03
2023-03-18T05:09:32.700Z,16.97
2023-03-18T05:11:59.931Z,18.27
2023-03-18T05:14:34.690Z,16.20
2023-03-18T05:17:02.542Z,19.63
2023-03-18T05:19:31.013Z,16.20
2023-03-18T05:22:09.649Z,15.27
2023-03-18T05:24:36.795Z,21.47
2023-03-18T05:27:05.608Z,15.90
2023-03-18T05:29:39.569Z,18.13
2023-03-18T05:32:13.023Z,14.20
2023-03-18T05:34:40.864Z,14.83
2023-03-18T05:37:10.881Z,14.27
2023-03-18T05:39:44.711Z,15.43
2023-03-18T05:42:14.612Z,16.03
2023-03-18T05:44:43.920Z,13.83
2023-03-18T05:47:13.015Z,15.63
2023-03-18T05:49:57.627Z,14.70
2023-03-18T05:52:25.415Z,12.67
2023-03-18T05:54:56.012Z,13.00
2023-03-18T05:57:28.009Z,15.73
2023-03-18T06:00:01.218Z,13.90
2023-03-18T06:02:32.079Z,13.93
2023-03-18T06:04:59.512Z,18.67
2023-03-18T06:07:26.642Z,13.93
2023-03-18T06:09:53.813Z,18.90
2023-03-18T06:12:20.889Z,14.53
2023-03-18T06:14:48.012Z,15.87
2023-03-18T06:17:18.001Z,15.47
2023-03-18T06:19:45.200Z,17.80
2023-03-18T06:22:12.755Z,15.10
2023-03-18T06:24:39.869Z,14.73
2023-03-18T06:27:07.805Z,15.00
2023-03-18T06:29:35.296Z,15.47
2023-03-18T06:32:08.604Z,13.00
2023-03-18T06:34:37.090Z,14.77
2023-03-18T06:37:05.491Z,18.03
2023-03-18T06:39:34.720Z,11.03
2023-03-18T06:42:05.152Z,18.27
2023-03-18T06:44:36.528Z,14.23
2023-03-18T06:47:15.037Z,14.40
2023-03-18T06:49:51.496Z,12.30
2023-03-18T06:52:23.867Z,10.90
2023-03-18T06:54:54.970Z,14.27
2023-03-18T06:57:22.170Z,17.50
2023-03-18T06:59:50.474Z,12.30
2023-03-18T07:02:18.097Z,11.90
2023-03-18T07:04:45.408Z,13.67
2023-03-18T07:07:14.403Z,11.50
2023-03-18T07:09:42.255Z,16.27
2023-03-18T07:12:10.375Z,9.37
2023-03-18T07:14:37.496Z,13.70
2023-03-18T07:17:04.666Z,11.03
2023-03-18T07:19:31.724Z,12.80
2023-03-18T07:21:58.896Z,10.40
2023-03-18T07:24:27.363Z,11.80
2023-03-18T07:26:54.428Z,9.17
2023-03-18T07:29:21.553Z,10.33
2023-03-18T07:31:48.854Z,8.40
2023-03-18T07:34:16.363Z,10.60
2023-03-18T07:36:43.423Z,8.60
2023-03-18T07:39:10.510Z,8.83
2023-03-18T07:41:38.983Z,8.77
2023-03-18T07:44:06.469Z,11.83
2023-03-18T07:46:33.723Z,8.10
2023-03-18T07:49:01.028Z,10.67
2023-03-18T07:51:28.211Z,8.27
2023-03-18T07:53:56.371Z,10.83
2023-03-18T07:56:23.457Z,9.67
2023-03-18T07:58:51.922Z,13.17
2023-03-18T08:01:19.307Z,8.60
2023-03-18T08:03:46.820Z,8.20
2023-03-18T08:06:14.244Z,10.07
2023-03-18T08:08:41.669Z,9.00
2023-03-18T08:11:08.773Z,12.63
2023-03-18T08:13:35.920Z,10.83
2023-03-18T08:16:04.472Z,9.60
2023-03-18T08:18:31.805Z,7.80
2023-03-18T08:20:58.908Z,8.90
2023-03-18T08:23:26.018Z,9.80
2023-03-18T08:25:53.124Z,7.50
2023-03-18T08:28:20.742Z,12.77
2023-03-18T08:30:47.865Z,9.50
2023-03-18T08:33:16.341Z,7.83
2023-03-18T08:35:43.490Z,8.47
2023-03-18T08:38:10.791Z,10.57
2023-03-18T08:40:37.929Z,10.00
2023-03-18T08:43:05.063Z,7.47
2023-03-18T08:45:32.630Z,6.20
2023-03-18T08:47:59.917Z,5.67
2023-03-18T08:50:28.514Z,7.80
2023-03-18T08:52:56.642Z,7.57
2023-03-18T08:55:24.103Z,8.20
2023-03-18T08:57:51.157Z,8.03
2023-03-18T09:00:18.793Z,6.03
2023-03-18T09:02:45.906Z,6.13
2023-03-18T09:05:13.100Z,10.07
2023-03-18T09:07:41.483Z,5.73
2023-03-18T09:10:08.862Z,8.27
2023-03-18T09:12:35.909Z,4.33
2023-03-18T09:15:03.041Z,9.90
2023-03-18T09:17:45.224Z,4.63
2023-03-18T09:20:17.351Z,4.10
2023-03-18T09:22:46.391Z,6.93
2023-03-18T09:25:13.769Z,5.10
2023-03-18T09:27:40.930Z,5.33
2023-03-18T09:30:09.206Z,5.93
2023-03-18T09:32:36.270Z,6.00
2023-03-18T09:35:03.417Z,5.40
2023-03-18T09:37:30.528Z,4.33
2023-03-18T09:39:58.922Z,5.07
2023-03-18T09:42:32.216Z,3.43
2023-03-18T09:45:00.797Z,5.80
2023-03-18T09:47:40.870Z,3.80
2023-03-18T09:50:13.468Z,4.00
2023-03-18T09:52:44.547Z,4.80
2023-03-18T09:55:19.311Z,5.53
2023-03-18T09:57:47.110Z,5.87
2023-03-18T10:00:18.341Z,4.97
2023-03-18T10:02:46.854Z,3.03
2023-03-18T10:05:16.844Z,4.70
2023-03-18T10:07:45.006Z,2.80
2023-03-18T10:10:17.449Z,4.47
2023-03-18T10:12:46.820Z,3.63
2023-03-18T10:15:16.074Z,3.63
2023-03-18T10:17:44.687Z,3.00
2023-03-18T10:20:25.903Z,5.63
2023-03-18T10:22:56.599Z,3.97
2023-03-18T10:25:27.129Z,2.87
2023-03-18T10:27:58.567Z,3.97
2023-03-18T10:30:32.504Z,3.37
2023-03-18T10:33:04.582Z,5.43
2023-03-18T10:35:35.175Z,4.13
2023-03-18T10:38:03.168Z,2.93
2023-03-18T10:40:34.958Z,2.33
2023-03-18T10:43:03.166Z,3.17
2023-03-18T10:45:31.367Z,2.77
2023-03-18T10:48:01.114Z,2.33
2023-03-18T10:50:32.460Z,2.57
2023-03-18T10:53:03.319Z,4.50
2023-03-18T10:55:34.769Z,3.60
2023-03-18T10:58:02.240Z,5.13
2023-03-18T11:00:30.517Z,2.43
2023-03-18T11:02:58.180Z,4.27
2023-03-18T11:05:26.443Z,2.37
2023-03-18T11:07:57.069Z,2.60
2023-03-18T11:10:25.112Z,4.40
2023-03-18T11:12:58.346Z,2.90
2023-03-18T11:15:25.498Z,2.33
2023-03-18T11:17:52.982Z,2.90
2023-03-18T11:20:21.531Z,3.80
2023-03-18T11:22:49.695Z,7.70
2023-03-18T11:25:17.769Z,3.23
2023-03-18T11:27:46.296Z,4.70
2023-03-18T11:30:33.277Z,4.97
2023-03-18T11:33:04.459Z,4.80
2023-03-18T11:35:33.682Z,2.67
2023-03-18T11:38:02.878Z,3.27
2023-03-18T11:40:30.100Z,3.13
2023-03-18T11:42:58.355Z,7.63
2023-03-18T11:45:32.466Z,2.67
2023-03-18T11:47:59.580Z,7.37
2023-03-18T11:50:31.396Z,3.83
2023-03-18T11:53:00.869Z,3.40
2023-03-18T11:55:32.902Z,8.13
2023-03-18T11:58:12.969Z,4.67
2023-03-18T12:00:45.486Z,3.47
2023-03-18T12:03:27.421Z,3.03
2023-03-18T12:06:01.276Z,3.00
2023-03-18T12:08:33.409Z,5.73
2023-03-18T12:11:05.191Z,4.13
2023-03-18T12:13:38.809Z,4.07
2023-03-18T12:16:12.591Z,4.80
2023-03-18T12:18:44.762Z,4.47
2023-03-18T12:21:29.723Z,3.77
2023-03-18T12:24:03.214Z,3.60
2023-03-18T12:26:34.957Z,5.83
2023-03-18T12:29:20.551Z,3.53
2023-03-18T12:31:52.870Z,3.97
2023-03-18T12:34:25.758Z,6.00
2023-03-18T12:36:59.916Z,5.13
2023-03-18T12:39:48.522Z,6.17
2023-03-18T12:42:18.055Z,4.33
2023-03-18T12:44:56.383Z,6.20
2023-03-18T12:47:26.321Z,5.57
2023-03-18T12:49:56.626Z,3.67
2023-03-18T12:52:28.035Z,4.93
2023-03-18T12:54:58.268Z,2.97
2023-03-18T12:57:27.491Z,3.43
2023-03-18T12:59:57.703Z,2.60
2023-03-18T13:02:40.471Z,3.53
2023-03-18T13:05:13.947Z,2.67
2023-03-18T13:07:43.756Z,3.10
2023-03-18T13:10:19.997Z,3.00
2023-03-18T13:12:48.597Z,2.70
2023-03-18T13:15:18.717Z,3.80
2023-03-18T13:17:48.019Z,4.43
2023-03-18T13:20:16.843Z,3.90
2023-03-18T13:22:53.057Z,3.53
2023-03-18T13:25:26.974Z,4.77
2023-03-18T13:28:05.560Z,3.23
2023-03-18T13:30:36.483Z,2.80
2023-03-18T13:33:21.978Z,3.30
2023-03-18T13:36:04.697Z,6.10
2023-03-18T13:38:44.578Z,4.57
2023-03-18T13:41:17.785Z,3.40
2023-03-18T13:43:46.502Z,8.70
2023-03-18T13:46:18.866Z,2.73
2023-03-18T13:48:47.599Z,2.90
2023-03-18T13:51:18.692Z,3.53
2023-03-18T13:53:47.336Z,3.10
2023-03-18T13:56:26.617Z,5.23
2023-03-18T13:58:54.084Z,5.57
2023-03-18T14:01:28.914Z,6.97
2023-03-18T14:03:59.962Z,5.43
2023-03-18T14:06:40.218Z,4.60
2023-03-18T14:09:22.856Z,4.70
2023-03-18T14:11:52.523Z,2.73
2023-03-18T14:14:38.371Z,3.87
2023-03-18T14:17:05.599Z,6.83
2023-03-18T14:19:34.117Z,7.57
2023-03-18T14:22:08.307Z,2.50
2023-03-18T14:24:35.885Z,7.20
2023-03-18T14:27:17.671Z,2.80
2023-03-18T14:29:45.618Z,5.40
2023-03-18T14:32:27.741Z,4.07
2023-03-18T14:34:57.115Z,2.53
2023-03-18T14:37:28.702Z,4.80
2023-03-18T14:39:59.443Z,3.77
2023-03-18T14:42:31.713Z,2.73
2023-03-18T14:45:02.737Z,4.43
2023-03-18T14:47:39.535Z,4.50
2023-03-18T14:50:13.985Z,3.30
2023-03-18T14:52:42.385Z,3.50
2023-03-18T14:55:14.390Z,4.70
2023-03-18T14:57:41.543Z,3.00
2023-03-18T15:00:14.228Z,7.40
2023-03-18T15:02:41.466Z,6.00
2023-03-18T15:05:10.512Z,3.30
2023-03-18T15:07:39.144Z,4.87
2023-03-18T15:10:08.650Z,5.37
2023-03-18T15:12:35.695Z,6.57
2023-03-18T15:15:02.776Z,4.47
2023-03-18T15:17:29.866Z,4.23
2023-03-18T15:19:59.848Z,9.40
2023-03-18T15:22:30.088Z,6.70
2023-03-18T15:24:59.584Z,5.00
2023-03-18T15:27:27.756Z,6.40
2023-03-18T15:29:55.806Z,5.53
2023-03-18T15:32:25.163Z,7.50
2023-03-18T15:34:53.279Z,5.03
2023-03-18T15:37:25.931Z,2.90
2023-03-18T15:39:55.839Z,3.20
2023-03-18T15:42:23.532Z,3.53
2023-03-18T15:44:54.636Z,5.90
2023-03-18T15:47:28.710Z,3.50
2023-03-18T15:49:56.785Z,4.13
2023-03-18T15:52:24.729Z,4.10
2023-03-18T15:54:52.271Z,5.33
2023-03-18T15:57:26.752Z,4.20
2023-03-18T15:59:53.816Z,6.77
2023-03-18T16:02:20.924Z,3.30
2023-03-18T16:04:48.082Z,7.47
2023-03-18T16:07:17.489Z,5.83
2023-03-18T16:09:44.564Z,2.50
2023-03-18T16:12:13.952Z,3.57
2023-03-18T16:14:43.507Z,7.10
2023-03-18T16:17:11.685Z,4.67
2023-03-18T16:19:38.749Z,3.97
2023-03-18T16:22:05.826Z,6.53
2023-03-18T16:24:33.029Z,4.47
2023-03-18T16:27:00.239Z,11.20
2023-03-18T16:29:28.636Z,11.13
2023-03-18T16:31:57.176Z,5.60
2023-03-18T16:34:24.404Z,4.10
2023-03-18T16:36:51.747Z,4.23
2023-03-18T16:39:19.997Z,3.03
2023-03-18T16:41:47.434Z,4.20
2023-03-18T16:44:15.541Z,4.97
2023-03-18T16:46:43.033Z,5.50
2023-03-18T16:49:18.588Z,4.97
2023-03-18T16:51:45.654Z,4.70
2023-03-18T16:54:17.881Z,3.90
2023-03-18T16:56:44.997Z,9.70
2023-03-18T16:59:12.775Z,4.93
2023-03-18T17:01:39.978Z,6.43
2023-03-18T17:04:12.549Z,3.53
2023-03-18T17:06:40.981Z,4.50
2023-03-18T17:09:08.081Z,6.57
2023-03-18T17:11:35.270Z,5.50
2023-03-18T17:14:02.372Z,5.43
2023-03-18T17:16:29.513Z,7.37
2023-03-18T17:18:56.593Z,2.30
2023-03-18T17:21:23.716Z,8.23
2023-03-18T17:23:52.157Z,5.13
2023-03-18T17:26:19.354Z,3.10
2023-03-18T17:28:47.959Z,4.30
2023-03-18T17:31:15.174Z,4.47
2023-03-18T17:33:42.420Z,5.67
2023-03-18T17:36:09.945Z,6.30
2023-03-18T17:38:37.073Z,4.20
2023-03-18T17:41:06.226Z,3.23
2023-03-18T17:43:34.171Z,3.60
2023-03-18T17:46:01.644Z,8.90
2023-03-18T17:48:29.650Z,9.03
2023-03-18T17:50:57.956Z,6.03
2023-03-18T17:53:26.975Z,5.10
2023-03-18T17:55:54.251Z,2.90
2023-03-18T17:58:23.872Z,3.10
2023-03-18T18:00:51.437Z,4.30
2023-03-18T18:03:20.821Z,7.50
2023-03-18T18:05:47.879Z,2.80
2023-03-18T18:08:15.652Z,3.20
2023-03-18T18:10:42.765Z,6.60
2023-03-18T18:13:13.226Z,4.30
2023-03-18T18:15:41.726Z,3.80
2023-03-18T18:18:13.920Z,4.77
2023-03-18T18:20:41.060Z,4.37
2023-03-18T18:23:08.139Z,6.43
2023-03-18T18:25:35.248Z,4.03
2023-03-18T18:28:02.318Z,6.00
2023-03-18T18:30:29.414Z,8.43
2023-03-18T18:32:57.908Z,5.13
2023-03-18T18:35:25.036Z,5.70
2023-03-18T18:37:52.108Z,5.10
2023-03-18T18:40:19.244Z,4.00
2023-03-18T18:42:46.325Z,5.63
2023-03-18T18:45:15.959Z,8.00
2023-03-18T18:47:43.062Z,3.97
2023-03-18T18:50:14.434Z,4.20
2023-03-18T18:52:41.536Z,6.47
2023-03-18T18:55:09.105Z,4.67
2023-03-18T18:57:37.964Z,4.13
2023-03-18T19:00:05.616Z,6.40
2023-03-18T19:02:33.545Z,5.50
2023-03-18T19:05:01.020Z,4.70
2023-03-18T19:07:29.474Z,6.57
2023-03-18T19:09:56.524Z,5.00
2023-03-18T19:12:23.596Z,5.80
2023-03-18T19:14:51.080Z,4.57
2023-03-18T19:17:19.607Z,5.33
2023-03-18T19:19:46.691Z,2.70
2023-03-18T19:22:14.348Z,3.53
2023-03-18T19:24:42.940Z,4.73
2023-03-18T19:27:15.999Z,5.80
2023-03-18T19:29:43.190Z,7.73
2023-03-18T19:32:14.784Z,9.47
2023-03-18T19:34:41.860Z,8.70
2023-03-18T19:37:11.603Z,6.40
2023-03-18T19:39:38.738Z,4.57
2023-03-18T19:42:07.173Z,5.30
2023-03-18T19:44:34.269Z,6.00
2023-03-18T19:47:01.412Z,4.70
2023-03-18T19:49:29.703Z,6.43
2023-03-18T19:51:57.117Z,7.13
2023-03-18T19:54:26.935Z,4.93
2023-03-18T19:56:54.337Z,8.20
2023-03-18T19:59:23.606Z,10.27
2023-03-18T20:01:51.206Z,5.57
2023-03-18T20:04:19.132Z,5.30
2023-03-18T20:06:46.600Z,5.10
2023-03-18T20:09:13.712Z,5.83
2023-03-18T20:11:40.874Z,10.70
2023-03-18T20:14:17.029Z,4.73
2023-03-18T20:16:45.442Z,5.57
2023-03-18T20:19:13.600Z,9.63
2023-03-18T20:21:40.945Z,10.70
2023-03-18T20:24:09.995Z,5.53
2023-03-18T20:26:37.080Z,7.20
2023-03-18T20:29:09.617Z,5.60
2023-03-18T20:31:36.735Z,3.43
2023-03-18T20:34:05.219Z,7.13
2023-03-18T20:36:32.985Z,5.07
2023-03-18T20:39:00.101Z,3.50
2023-03-18T20:41:27.179Z,6.73
2023-03-18T20:43:54.253Z,6.97
2023-03-18T20:46:25.285Z,9.07
2023-03-18T20:48:52.726Z,7.40
2023-03-18T20:51:22.256Z,6.80
2023-03-18T20:53:49.678Z,7.40
2023-03-18T20:56:16.788Z,4.67
2023-03-18T20:58:43.888Z,4.67
2023-03-18T21:01:12.606Z,4.20
2023-03-18T21:03:40.151Z,6.73
2023-03-18T21:06:07.419Z,10.30
2023-03-18T21:08:35.842Z,8.00
2023-03-18T21:11:03.588Z,6.90
2023-03-18T21:13:31.413Z,13.23
2023-03-18T21:15:58.968Z,5.83
2023-03-18T21:18:26.360Z,6.43
2023-03-18T21:20:53.938Z,8.13
2023-03-18T21:23:21.753Z,7.20
2023-03-18T21:25:50.524Z,8.63
2023-03-18T21:28:18.605Z,9.20
2023-03-18T21:30:47.248Z,6.27
2023-03-18T21:33:21.304Z,12.90
2023-03-18T21:35:48.670Z,7.47
2023-03-18T21:38:15.757Z,10.90
2023-03-18T21:40:42.905Z,7.83
2023-03-18T21:43:23.472Z,7.20
2023-03-18T21:45:50.673Z,10.13
2023-03-18T21:48:17.776Z,11.33
2023-03-18T21:50:44.990Z,10.80
2023-03-18T21:53:12.331Z,7.50
2023-03-18T21:55:39.461Z,6.60
2023-03-18T21:58:06.640Z,20.77
2023-03-18T22:00:35.110Z,19.00
2023-03-18T22:03:02.192Z,17.90
2023-03-18T22:05:29.279Z,11.30
2023-03-18T22:07:56.387Z,12.80
2023-03-18T22:10:24.095Z,9.80
2023-03-18T22:12:51.327Z,10.10
2023-03-18T22:15:36.598Z,11.87
2023-03-18T22:18:04.166Z,7.27
2023-03-18T22:20:31.252Z,8.67
2023-03-18T22:22:58.310Z,8.30
2023-03-18T22:25:28.079Z,11.13
2023-03-18T22:27:55.185Z,8.47
2023-03-18T22:30:22.325Z,7.57
2023-03-18T22:32:50.871Z,8.90
2023-03-18T22:35:19.376Z,8.07
2023-03-18T22:37:46.907Z,10.90
2023-03-18T22:40:16.632Z,8.33
2023-03-18T22:42:43.699Z,8.47
2023-03-18T22:45:18.928Z,10.63
2023-03-18T22:47:45.994Z,11.17
2023-03-18T22:50:14.412Z,10.70
2023-03-18T22:52:41.890Z,10.63
2023-03-18T22:55:16.685Z,7.70
2023-03-18T22:57:43.753Z,8.40
2023-03-18T23:00:20.894Z,14.53
2023-03-18T23:02:48.722Z,11.50
2023-03-18T23:05:18.179Z,9.63
2023-03-18T23:07:45.311Z,11.63
2023-03-18T23:10:12.713Z,10.40
2023-03-18T23:12:39.817Z,9.00
2023-03-18T23:15:07.597Z,5.80
2023-03-18T23:17:34.822Z,6.37
2023-03-18T23:20:01.863Z,5.63
2023-03-18T23:22:31.139Z,6.40
2023-03-18T23:24:58.297Z,10.87
2023-03-18T23:27:26.305Z,8.13
2023-03-18T23:29:53.749Z,9.90
2023-03-18T23:32:21.532Z,8.13
2023-03-18T23:34:48.930Z,11.60
2023-03-18T23:37:16.496Z,8.10
2023-03-18T23:39:44.945Z,8.00
2023-03-18T23:42:12.304Z,9.90
2023-03-18T23:44:39.474Z,8.63
2023-03-18T23:47:06.981Z,7.70
2023-03-18T23:49:34.118Z,8.20
2023-03-18T23:52:01.224Z,12.00
2023-03-18T23:54:28.608Z,10.37
2023-03-18T23:56:57.031Z,9.60
2023-03-18T23:59:24.095Z,8.37
